createdAt,value
2017-06-16T00:00:27.336Z,89.4
2017-06-16T00:01:27.335Z,90.07
2017-06-16T00:02:27.335Z,90.12
2017-06-16T00:03:27.332Z,90.12
2017-06-16T00:04:27.333Z,89.98
2017-06-16T00:05:27.329Z,89.4
2017-06-16T00:06:27.338Z,89.3
2017-06-16T00:07:27.331Z,89.21
2017-06-16T00:08:27.328Z,89.11
2017-06-16T00:09:27.331Z,89.69
2017-06-16T00:10:27.327Z,89.59
2017-06-16T00:11:27.329Z,89.3
2017-06-16T00:12:27.327Z,89.59
2017-06-16T00:13:27.327Z,89.59
2017-06-16T00:14:27.330Z,89.5
2017-06-16T00:15:27.022Z,89.4
2017-06-16T00:16:27.334Z,89.59
2017-06-16T00:17:27.327Z,89.5
2017-06-16T00:18:27.325Z,89.4
2017-06-16T00:19:27.322Z,89.01
2017-06-16T00:20:27.319Z,89.21
2017-06-16T00:21:27.322Z,89.3
2017-06-16T00:22:27.321Z,88.92
2017-06-16T00:23:27.318Z,89.3
2017-06-16T00:24:27.317Z,89.4
2017-06-16T00:25:27.317Z,89.4
2017-06-16T00:26:27.319Z,89.01
2017-06-16T00:27:27.321Z,88.92
2017-06-16T00:28:27.317Z,89.4
2017-06-16T00:29:27.317Z,89.5
2017-06-16T00:30:27.315Z,89.5
2017-06-16T00:31:27.313Z,89.5
2017-06-16T00:32:27.011Z,89.01
2017-06-16T00:33:27.314Z,89.5
2017-06-16T00:34:27.312Z,89.4
2017-06-16T00:35:27.314Z,89.54
2017-06-16T00:36:27.311Z,89.69
2017-06-16T00:37:27.313Z,89.78
2017-06-16T00:38:27.005Z,88.92
2017-06-16T00:39:27.309Z,89.21
2017-06-16T00:40:27.307Z,89.3
2017-06-16T00:41:27.307Z,89.21
2017-06-16T00:42:27.306Z,89.3
2017-06-16T00:43:27.306Z,89.3
2017-06-16T00:44:27.306Z,88.82
2017-06-16T00:45:27.306Z,88.73
2017-06-16T00:46:27.305Z,89.01
2017-06-16T00:47:27.302Z,89.01
2017-06-16T00:48:27.305Z,88.44
2017-06-16T00:49:27.304Z,88.53
2017-06-16T00:50:27.303Z,88.63
2017-06-16T00:51:27.302Z,88.24
2017-06-16T00:52:26.994Z,88.06
2017-06-16T00:53:27.300Z,87.76
2017-06-16T00:54:27.299Z,87.76
2017-06-16T00:55:27.296Z,87.96
2017-06-16T00:56:26.995Z,87.96
2017-06-16T00:57:27.298Z,87.96
2017-06-16T00:58:27.297Z,87.96
2017-06-16T00:59:27.297Z,87.76
2017-06-16T01:00:27.296Z,87.76
2017-06-16T01:01:27.297Z,87.96
2017-06-16T01:02:27.292Z,88.15
2017-06-16T01:03:27.292Z,88.3
2017-06-16T01:04:27.292Z,88.06
2017-06-16T01:05:26.988Z,88.34
2017-06-16T01:06:27.292Z,88.15
2017-06-16T01:07:27.291Z,88.34
2017-06-16T01:08:27.290Z,88.06
2017-06-16T01:09:27.288Z,87.96
2017-06-16T01:10:27.289Z,88.24
2017-06-16T01:11:27.289Z,88.15
2017-06-16T01:12:27.286Z,88.06
2017-06-16T01:13:27.285Z,87.86
2017-06-16T01:14:27.284Z,88.15
2017-06-16T01:15:27.284Z,87.57
2017-06-16T01:16:27.286Z,87.82
2017-06-16T01:17:27.282Z,87.67
2017-06-16T01:18:26.982Z,87.48
2017-06-16T01:19:27.280Z,87.76
2017-06-16T01:20:27.280Z,87.96
2017-06-16T01:21:27.280Z,87.57
2017-06-16T01:22:26.975Z,87.67
2017-06-16T01:23:27.278Z,87.76
2017-06-16T01:24:26.973Z,87.76
2017-06-16T01:25:27.278Z,88.15
2017-06-16T01:26:27.276Z,87.62
2017-06-16T01:27:27.275Z,87.72
2017-06-16T01:28:27.274Z,87.67
2017-06-16T01:29:27.275Z,87.62
2017-06-16T01:30:27.271Z,87.76
2017-06-16T01:31:27.274Z,87.53
2017-06-16T01:32:27.269Z,87.67
2017-06-16T01:33:27.275Z,87.76
2017-06-16T01:34:27.269Z,87.86
2017-06-16T01:35:27.302Z,87.76
2017-06-16T01:36:27.268Z,87.86
2017-06-16T01:37:26.964Z,88.15
2017-06-16T01:38:27.266Z,87.76
2017-06-16T01:39:27.267Z,87.48
2017-06-16T01:40:27.266Z,87.38
2017-06-16T01:41:27.265Z,87.67
2017-06-16T01:42:27.262Z,87.29
2017-06-16T01:43:27.263Z,87.29
2017-06-16T01:44:27.259Z,87.67
2017-06-16T01:45:26.957Z,87.57
2017-06-16T01:46:27.265Z,86.99
2017-06-16T01:47:27.261Z,87.38
2017-06-16T01:48:27.258Z,86.9
2017-06-16T01:49:26.953Z,86.61
2017-06-16T01:50:26.951Z,86.52
2017-06-16T01:51:27.258Z,86.8
2017-06-16T01:52:26.949Z,86.71
2017-06-16T01:53:27.254Z,86.71
2017-06-16T01:54:27.253Z,86.71
2017-06-16T01:55:27.254Z,86.71
2017-06-16T01:56:26.947Z,86.32
2017-06-16T01:57:27.253Z,86.61
2017-06-16T01:58:27.250Z,86.9
2017-06-16T01:59:27.252Z,86.32
2017-06-16T02:00:27.248Z,86.13
2017-06-16T02:01:26.943Z,86.52
2017-06-16T02:02:27.248Z,86.61
2017-06-16T02:03:27.248Z,86.42
2017-06-16T02:04:27.249Z,86.52
2017-06-16T02:05:27.281Z,86.52
2017-06-16T02:06:27.243Z,86.61
2017-06-16T02:07:27.242Z,86.22
2017-06-16T02:08:26.938Z,86.99
2017-06-16T02:09:27.241Z,86.22
2017-06-16T02:10:27.244Z,86.61
2017-06-16T02:11:27.241Z,86.52
2017-06-16T02:12:27.240Z,86.42
2017-06-16T02:13:27.236Z,86.42
2017-06-16T02:14:27.239Z,86.22
2017-06-16T02:15:27.239Z,86.42
2017-06-16T02:16:26.928Z,86.99
2017-06-16T02:17:26.925Z,86.8
2017-06-16T02:18:27.234Z,86.42
2017-06-16T02:19:27.232Z,86.22
2017-06-16T02:20:27.232Z,86.22
2017-06-16T02:21:27.232Z,86.71
2017-06-16T02:22:27.231Z,86.61
2017-06-16T02:23:27.231Z,86.61
2017-06-16T02:24:27.227Z,86.8
2017-06-16T02:25:27.229Z,86.42
2017-06-16T02:26:27.230Z,86.52
2017-06-16T02:27:27.231Z,86.42
2017-06-16T02:28:27.226Z,86.42
2017-06-16T02:29:27.226Z,86.8
2017-06-16T02:30:27.226Z,86.09
2017-06-16T02:31:27.224Z,86.13
2017-06-16T02:32:27.223Z,86.04
2017-06-16T02:33:27.223Z,85.65
2017-06-16T02:34:26.915Z,86.13
2017-06-16T02:35:27.222Z,86.47
2017-06-16T02:36:26.913Z,86.32
2017-06-16T02:37:26.915Z,86.61
2017-06-16T02:38:27.218Z,86.71
2017-06-16T02:39:27.218Z,86.8
2017-06-16T02:40:27.218Z,86.8
2017-06-16T02:41:27.220Z,86.8
2017-06-16T02:42:27.216Z,86.8
2017-06-16T02:43:27.215Z,86.8
2017-06-16T02:44:26.910Z,86.8
2017-06-16T02:45:27.212Z,86.61
2017-06-16T02:46:27.209Z,86.32
2017-06-16T02:47:27.211Z,86.22
2017-06-16T02:48:26.906Z,86.52
2017-06-16T02:49:27.209Z,85.84
2017-06-16T02:50:26.904Z,86.04
2017-06-16T02:51:27.210Z,86.22
2017-06-16T02:52:27.207Z,86.32
2017-06-16T02:53:27.204Z,85.55
2017-06-16T02:54:27.205Z,86.04
2017-06-16T02:55:27.204Z,85.55
2017-06-16T02:56:27.208Z,85.75
2017-06-16T02:57:26.894Z,85.75
2017-06-16T02:58:27.203Z,85.65
2017-06-16T02:59:27.201Z,85.46
2017-06-16T03:00:27.200Z,85.46
2017-06-16T03:01:27.200Z,85.36
2017-06-16T03:02:27.199Z,85.36
2017-06-16T03:03:27.199Z,85.65
2017-06-16T03:04:27.195Z,85.27
2017-06-16T03:05:27.196Z,85.17
2017-06-16T03:06:27.195Z,85.36
2017-06-16T03:07:27.194Z,85.31
2017-06-16T03:08:27.194Z,85.4
2017-06-16T03:09:27.192Z,85.07
2017-06-16T03:10:27.193Z,85.31
2017-06-16T03:11:27.189Z,84.73
2017-06-16T03:12:27.193Z,84.73
2017-06-16T03:13:26.883Z,84.73
2017-06-16T03:14:27.187Z,84.63
2017-06-16T03:15:27.186Z,84.44
2017-06-16T03:16:27.187Z,84.34
2017-06-16T03:17:27.184Z,84.54
2017-06-16T03:18:27.183Z,84.44
2017-06-16T03:19:27.182Z,84.34
2017-06-16T03:20:26.876Z,84.25
2017-06-16T03:21:27.183Z,83.77
2017-06-16T03:22:27.183Z,83.96
2017-06-16T03:23:27.183Z,83.96
2017-06-16T03:24:27.179Z,83.77
2017-06-16T03:25:27.180Z,83.58
2017-06-16T03:26:27.175Z,83.86
2017-06-16T03:27:27.177Z,83.09
2017-06-16T03:28:27.175Z,83.48
2017-06-16T03:29:27.174Z,83.77
2017-06-16T03:30:27.172Z,83.77
2017-06-16T03:31:27.172Z,83.67
2017-06-16T03:32:27.172Z,83.48
2017-06-16T03:33:27.168Z,83.39
2017-06-16T03:34:27.170Z,83.77
2017-06-16T03:35:27.168Z,83.96
2017-06-16T03:36:27.170Z,83.92
2017-06-16T03:37:27.164Z,84.01
2017-06-16T03:38:27.167Z,83.96
2017-06-16T03:39:27.164Z,84.06
2017-06-16T03:40:27.166Z,83.77
2017-06-16T03:41:27.163Z,84.01
2017-06-16T03:42:27.165Z,83.92
2017-06-16T03:43:27.164Z,84.16
2017-06-16T03:44:27.160Z,83.77
2017-06-16T03:45:27.162Z,83.53
2017-06-16T03:46:27.165Z,83.73
2017-06-16T03:47:27.155Z,83.53
2017-06-16T03:48:27.158Z,83.63
2017-06-16T03:49:27.155Z,84.4
2017-06-16T03:50:27.155Z,83.63
2017-06-16T03:51:26.847Z,84.34
2017-06-16T03:52:27.154Z,84.3
2017-06-16T03:53:27.151Z,84.16
2017-06-16T03:54:26.846Z,84.25
2017-06-16T03:55:27.153Z,83.96
2017-06-16T03:56:27.152Z,84.34
2017-06-16T03:57:27.154Z,84.25
2017-06-16T03:58:26.844Z,84.16
2017-06-16T03:59:27.149Z,84.25
2017-06-16T04:00:27.146Z,84.16
2017-06-16T04:01:26.840Z,84.34
2017-06-16T04:02:26.840Z,84.16
2017-06-16T04:03:27.145Z,84.34
2017-06-16T04:04:27.144Z,84.34
2017-06-16T04:05:27.143Z,84.44
2017-06-16T04:06:27.147Z,84.44
2017-06-16T04:07:27.144Z,83.96
2017-06-16T04:08:27.141Z,83.77
2017-06-16T04:09:27.138Z,84.06
2017-06-16T04:10:26.834Z,83.86
2017-06-16T04:11:27.139Z,83.96
2017-06-16T04:12:27.137Z,84.06
2017-06-16T04:13:27.135Z,83.58
2017-06-16T04:14:27.135Z,83.96
2017-06-16T04:15:27.135Z,83.29
2017-06-16T04:16:26.828Z,83.19
2017-06-16T04:17:27.132Z,83.23
2017-06-16T04:18:26.825Z,82.85
2017-06-16T04:19:27.131Z,82.65
2017-06-16T04:20:26.824Z,82.75
2017-06-16T04:21:27.131Z,82.65
2017-06-16T04:22:27.128Z,82.46
2017-06-16T04:23:26.823Z,82.37
2017-06-16T04:24:27.127Z,82.37
2017-06-16T04:25:26.822Z,81.79
2017-06-16T04:26:27.129Z,81.79
2017-06-16T04:27:27.128Z,82.02
2017-06-16T04:28:27.127Z,82.17
2017-06-16T04:29:27.125Z,82.02
2017-06-16T04:30:26.817Z,81.93
2017-06-16T04:31:27.122Z,81.63
2017-06-16T04:32:27.121Z,81.83
2017-06-16T04:33:27.121Z,81.16
2017-06-16T04:34:26.818Z,81.25
2017-06-16T04:35:27.118Z,81.25
2017-06-16T04:36:27.120Z,81.06
2017-06-16T04:37:27.119Z,80.58
2017-06-16T04:38:27.118Z,80.87
2017-06-16T04:39:27.115Z,80.87
2017-06-16T04:40:27.114Z,81.06
2017-06-16T04:41:27.116Z,81.06
2017-06-16T04:42:27.112Z,81.16
2017-06-16T04:43:27.112Z,80.96
2017-06-16T04:44:27.112Z,80.87
2017-06-16T04:45:27.111Z,81.06
2017-06-16T04:46:27.114Z,80.83
2017-06-16T04:47:27.111Z,80.54
2017-06-16T04:48:27.108Z,80.92
2017-06-16T04:49:27.110Z,80.73
2017-06-16T04:50:26.804Z,81.6
2017-06-16T04:51:27.107Z,80.73
2017-06-16T04:52:26.802Z,80.73
2017-06-16T04:53:27.108Z,80.73
2017-06-16T04:54:27.105Z,80.87
2017-06-16T04:55:27.106Z,80.96
2017-06-16T04:56:27.104Z,80.77
2017-06-16T04:57:27.103Z,80.77
2017-06-16T04:58:27.102Z,80.29
2017-06-16T04:59:27.105Z,80.33
2017-06-16T05:00:27.103Z,80.52
2017-06-16T05:01:27.099Z,80.14
2017-06-16T05:02:27.097Z,80.23
2017-06-16T05:03:27.102Z,80.43
2017-06-16T05:04:27.101Z,79.75
2017-06-16T05:05:27.098Z,79.94
2017-06-16T05:06:27.099Z,80.14
2017-06-16T05:07:26.790Z,80.43
2017-06-16T05:08:27.095Z,80.14
2017-06-16T05:09:27.094Z,80.04
2017-06-16T05:10:27.095Z,80.38
2017-06-16T05:11:27.094Z,80.23
2017-06-16T05:12:27.091Z,80.14
2017-06-16T05:13:27.091Z,80.14
2017-06-16T05:14:27.094Z,80.04
2017-06-16T05:15:27.091Z,80.23
2017-06-16T05:16:27.091Z,80.04
2017-06-16T05:17:27.089Z,79.94
2017-06-16T05:18:26.787Z,79.56
2017-06-16T05:19:26.783Z,79.17
2017-06-16T05:20:27.086Z,79.66
2017-06-16T05:21:27.088Z,79.75
2017-06-16T05:22:27.087Z,79.75
2017-06-16T05:23:26.777Z,79.56
2017-06-16T05:24:27.083Z,79.56
2017-06-16T05:25:27.084Z,79.46
2017-06-16T05:26:27.082Z,79.27
2017-06-16T05:27:26.775Z,79.46
2017-06-16T05:28:27.080Z,79.17
2017-06-16T05:29:27.080Z,79.46
2017-06-16T05:30:27.078Z,79.27
2017-06-16T05:31:26.772Z,79.46
2017-06-16T05:32:27.080Z,79.17
2017-06-16T05:33:27.080Z,79.17
2017-06-16T05:34:27.077Z,78.98
2017-06-16T05:35:27.077Z,79.17
2017-06-16T05:36:27.075Z,78.79
2017-06-16T05:37:27.075Z,78.98
2017-06-16T05:38:27.074Z,78.98
2017-06-16T05:39:27.074Z,78.69
2017-06-16T05:40:27.074Z,78.85
2017-06-16T05:41:27.072Z,78.94
2017-06-16T05:42:27.072Z,79.03
2017-06-16T05:43:27.071Z,79.03
2017-06-16T05:44:27.069Z,78.85
2017-06-16T05:45:27.069Z,78.59
2017-06-16T05:46:27.069Z,78.56
2017-06-16T05:47:27.072Z,78.79
2017-06-16T05:48:27.066Z,78.75
2017-06-16T05:49:27.066Z,78.56
2017-06-16T05:50:27.104Z,78.65
2017-06-16T05:51:27.067Z,78.65
2017-06-16T05:52:26.755Z,78.5
2017-06-16T05:53:26.757Z,78.31
2017-06-16T05:54:27.061Z,78.4
2017-06-16T05:55:26.758Z,77.73
2017-06-16T05:56:26.752Z,77.83
2017-06-16T05:57:27.061Z,77.73
2017-06-16T05:58:27.062Z,77.83
2017-06-16T05:59:26.753Z,77.53
2017-06-16T06:00:26.752Z,77.44
2017-06-16T06:01:26.750Z,77.53
2017-06-16T06:02:27.057Z,77.53
2017-06-16T06:03:26.747Z,77.53
2017-06-16T06:04:26.747Z,77.92
2017-06-16T06:05:27.054Z,78.02
2017-06-16T06:06:27.055Z,77.73
2017-06-16T06:07:27.053Z,78.02
2017-06-16T06:08:27.052Z,77.73
2017-06-16T06:09:27.050Z,77.92
2017-06-16T06:10:26.744Z,77.92
2017-06-16T06:11:26.745Z,78.31
2017-06-16T06:12:26.744Z,78.65
2017-06-16T06:13:26.741Z,78.46
2017-06-16T06:14:26.740Z,78.75
2017-06-16T06:15:26.740Z,78.75
2017-06-16T06:16:27.047Z,79.13
2017-06-16T06:17:27.055Z,79.23
2017-06-16T06:18:27.043Z,79.23
2017-06-16T06:19:27.042Z,78.94
2017-06-16T06:20:27.041Z,78.94
2017-06-16T06:21:27.043Z,79.13
2017-06-16T06:22:27.041Z,79.23
2017-06-16T06:23:27.041Z,78.94
2017-06-16T06:24:26.732Z,79.13
2017-06-16T06:25:27.038Z,79.33
2017-06-16T06:26:27.037Z,79.43
2017-06-16T06:27:26.731Z,78.94
2017-06-16T06:28:27.035Z,78.85
2017-06-16T06:29:26.728Z,79.23
2017-06-16T06:30:27.037Z,79.27
2017-06-16T06:31:27.034Z,79.08
2017-06-16T06:32:27.030Z,78.4
2017-06-16T06:33:27.034Z,79.08
2017-06-16T06:34:27.030Z,78.59
2017-06-16T06:35:27.029Z,78.31
2017-06-16T06:36:27.028Z,77.92
2017-06-16T06:37:27.030Z,78.06
2017-06-16T06:38:27.026Z,78.06
2017-06-16T06:39:27.028Z,78.06
2017-06-16T06:40:27.027Z,77.96
2017-06-16T06:41:26.718Z,77.58
2017-06-16T06:42:27.025Z,77.76
2017-06-16T06:43:26.719Z,77.38
2017-06-16T06:44:27.024Z,77.48
2017-06-16T06:45:27.022Z,77.09
2017-06-16T06:46:27.021Z,77.19
2017-06-16T06:47:27.021Z,76.9
2017-06-16T06:48:27.023Z,76.55
2017-06-16T06:49:27.027Z,76.84
2017-06-16T06:50:27.021Z,76.71
2017-06-16T06:51:27.020Z,76.51
2017-06-16T06:52:27.019Z,76.65
2017-06-16T06:53:26.719Z,76.17
2017-06-16T06:54:27.016Z,75.14
2017-06-16T06:55:26.710Z,75.05
2017-06-16T06:56:27.014Z,74.79
2017-06-16T06:57:27.015Z,73.86
2017-06-16T06:58:27.013Z,72.74
2017-06-16T06:59:27.014Z,71.46
2017-06-16T07:00:27.014Z,69.4
2017-06-16T07:01:26.708Z,67.88
2017-06-16T07:02:27.048Z,66.66
2017-06-16T07:03:27.014Z,64.75
2017-06-16T07:04:27.013Z,64.56
2017-06-16T07:05:27.011Z,63.88
2017-06-16T07:06:27.014Z,63.23
2017-06-16T07:07:27.013Z,62.29
2017-06-16T07:08:26.708Z,60.48
2017-06-16T07:09:27.012Z,59.41
2017-06-16T07:10:27.012Z,60.09
2017-06-16T07:11:27.015Z,58.76
2017-06-16T07:12:27.014Z,57.62
2017-06-16T07:13:27.016Z,56.49
2017-06-16T07:14:27.014Z,55.74
2017-06-16T07:15:27.020Z,55.44
2017-06-16T07:16:27.020Z,55.32
2017-06-16T07:17:27.016Z,54.18
2017-06-16T07:18:26.714Z,54.38
2017-06-16T07:19:27.018Z,53.4
2017-06-16T07:20:27.019Z,53.4
2017-06-16T07:21:27.023Z,53.5
2017-06-16T07:22:27.021Z,53.3
2017-06-16T07:23:27.022Z,54.25
2017-06-16T07:24:27.023Z,54.25
2017-06-16T07:25:27.025Z,54.9
2017-06-16T07:26:26.719Z,55.17
2017-06-16T07:27:26.721Z,56.5
2017-06-16T07:28:27.026Z,56.57
2017-06-16T07:29:27.033Z,56.86
2017-06-16T07:30:27.027Z,56.47
2017-06-16T07:31:27.029Z,55.79
2017-06-16T07:32:27.030Z,55.11
2017-06-16T07:33:26.727Z,53.97
2017-06-16T07:34:27.030Z,53.97
2017-06-16T07:35:26.724Z,53
2017-06-16T07:36:27.034Z,53.39
2017-06-16T07:37:27.036Z,53.39
2017-06-16T07:38:27.036Z,51.6
2017-06-16T07:39:27.035Z,49.8
2017-06-16T07:40:27.038Z,49.24
2017-06-16T07:41:26.732Z,48.27
2017-06-16T07:42:27.038Z,47.61
2017-06-16T07:43:26.736Z,48.27
2017-06-16T07:44:27.042Z,47.49
2017-06-16T07:45:27.040Z,48.25
2017-06-16T07:46:27.043Z,48.9
2017-06-16T07:47:26.738Z,49.56
2017-06-16T07:48:27.045Z,50.51
2017-06-16T07:49:26.743Z,51.26
2017-06-16T07:50:27.047Z,52.76
2017-06-16T07:51:27.049Z,53.31
2017-06-16T07:52:27.052Z,54.06
2017-06-16T07:53:27.048Z,54.94
2017-06-16T07:54:27.049Z,55.04
2017-06-16T07:55:27.050Z,55.1
2017-06-16T07:56:27.052Z,55.58
2017-06-16T07:57:27.052Z,55.88
2017-06-16T07:58:27.055Z,55.68
2017-06-16T07:59:27.055Z,56.24
2017-06-16T08:00:27.055Z,56.16
2017-06-16T08:01:27.056Z,55.68
2017-06-16T08:02:27.055Z,55.4
2017-06-16T08:03:27.055Z,54.84
2017-06-16T08:04:27.057Z,54.74
2017-06-16T08:05:27.059Z,54.09
2017-06-16T08:06:27.058Z,53.44
2017-06-16T08:07:27.059Z,52.11
2017-06-16T08:08:26.753Z,51.35
2017-06-16T08:09:27.067Z,50.6
2017-06-16T08:10:27.060Z,49.85
2017-06-16T08:11:27.061Z,48.88
2017-06-16T08:12:27.061Z,48.97
2017-06-16T08:13:26.758Z,48.97
2017-06-16T08:14:27.062Z,48.85
2017-06-16T08:15:27.064Z,49.8
2017-06-16T08:16:27.063Z,50.48
2017-06-16T08:17:27.067Z,50.38
2017-06-16T08:18:27.068Z,50.58
2017-06-16T08:19:27.078Z,51.16
2017-06-16T08:20:26.760Z,50.96
2017-06-16T08:21:27.071Z,51.26
2017-06-16T08:22:27.070Z,51.23
2017-06-16T08:23:26.767Z,51.72
2017-06-16T08:24:27.072Z,51.16
2017-06-16T08:25:27.071Z,50.89
2017-06-16T08:26:27.071Z,48.68
2017-06-16T08:27:27.073Z,47.86
2017-06-16T08:28:26.772Z,46.81
2017-06-16T08:29:26.768Z,45.74
2017-06-16T08:30:27.074Z,45.37
2017-06-16T08:31:27.078Z,45.29
2017-06-16T08:32:27.077Z,44.42
2017-06-16T08:33:27.075Z,43.47
2017-06-16T08:34:27.076Z,42.05
2017-06-16T08:35:27.078Z,41.31
2017-06-16T08:36:27.081Z,40.84
2017-06-16T08:37:27.077Z,40.35
2017-06-16T08:38:27.079Z,41.11
2017-06-16T08:39:27.084Z,41.58
2017-06-16T08:40:26.774Z,41.56
2017-06-16T08:41:27.080Z,41.77
2017-06-16T08:42:26.776Z,41.85
2017-06-16T08:43:27.086Z,41.07
2017-06-16T08:44:27.085Z,40.01
2017-06-16T08:45:27.087Z,38.98
2017-06-16T08:46:27.085Z,38.69
2017-06-16T08:47:27.087Z,39.76
2017-06-16T08:48:27.086Z,39.84
2017-06-16T08:49:27.087Z,40.8
2017-06-16T08:50:27.091Z,41.07
2017-06-16T08:51:27.092Z,40.76
2017-06-16T08:52:27.091Z,40.45
2017-06-16T08:53:27.090Z,40.17
2017-06-16T08:54:27.128Z,40.47
2017-06-16T08:55:27.093Z,41.32
2017-06-16T08:56:26.788Z,41.89
2017-06-16T08:57:27.094Z,42.18
2017-06-16T08:58:27.095Z,42.65
2017-06-16T08:59:27.093Z,43.5
2017-06-16T09:00:27.096Z,43.5
2017-06-16T09:01:26.792Z,43.96
2017-06-16T09:02:27.097Z,43.58
2017-06-16T09:03:27.104Z,43.38
2017-06-16T09:04:27.100Z,43.09
2017-06-16T09:05:27.097Z,43.67
2017-06-16T09:06:27.099Z,42.99
2017-06-16T09:07:26.798Z,43.48
2017-06-16T09:08:26.798Z,44.35
2017-06-16T09:09:26.794Z,43.96
2017-06-16T09:10:26.797Z,44.35
2017-06-16T09:11:27.105Z,43.99
2017-06-16T09:12:27.104Z,43.96
2017-06-16T09:13:27.105Z,43.67
2017-06-16T09:14:27.107Z,43.38
2017-06-16T09:15:27.106Z,42.7
2017-06-16T09:16:27.108Z,42.8
2017-06-16T09:17:26.804Z,43.36
2017-06-16T09:18:27.110Z,43.85
2017-06-16T09:19:27.112Z,44.43
2017-06-16T09:20:27.113Z,44.12
2017-06-16T09:21:27.112Z,44.21
2017-06-16T09:22:27.112Z,44.24
2017-06-16T09:23:27.113Z,44.43
2017-06-16T09:24:27.116Z,44.14
2017-06-16T09:25:27.114Z,43.75
2017-06-16T09:26:27.115Z,44.24
2017-06-16T09:27:27.114Z,45.21
2017-06-16T09:28:27.114Z,44.02
2017-06-16T09:29:27.115Z,43.92
2017-06-16T09:30:27.117Z,43.92
2017-06-16T09:31:27.121Z,43.63
2017-06-16T09:32:27.125Z,43.44
2017-06-16T09:33:26.815Z,43.92
2017-06-16T09:34:27.122Z,44.02
2017-06-16T09:35:27.123Z,44.02
2017-06-16T09:36:27.124Z,43.73
2017-06-16T09:37:27.125Z,43.26
2017-06-16T09:38:27.123Z,43.16
2017-06-16T09:39:27.126Z,42.78
2017-06-16T09:40:27.126Z,42.68
2017-06-16T09:41:27.130Z,42.7
2017-06-16T09:42:27.125Z,42.21
2017-06-16T09:43:26.820Z,41.24
2017-06-16T09:44:26.822Z,40.08
2017-06-16T09:45:27.129Z,40.37
2017-06-16T09:46:26.829Z,41.14
2017-06-16T09:47:27.134Z,40.83
2017-06-16T09:48:27.133Z,40.54
2017-06-16T09:49:27.131Z,41.13
2017-06-16T09:50:26.828Z,40.33
2017-06-16T09:51:27.134Z,40.23
2017-06-16T09:52:27.134Z,40.5
2017-06-16T09:53:27.134Z,40.79
2017-06-16T09:54:27.140Z,41.28
2017-06-16T09:55:27.138Z,41.94
2017-06-16T09:56:27.140Z,41.74
2017-06-16T09:57:26.832Z,42.13
2017-06-16T09:58:27.140Z,42.61
2017-06-16T09:59:27.144Z,42.43
2017-06-16T10:00:27.140Z,42.35
2017-06-16T10:01:27.142Z,41.77
2017-06-16T10:02:27.143Z,41.18
2017-06-16T10:03:27.145Z,40.42
2017-06-16T10:04:27.143Z,40.03
2017-06-16T10:05:27.143Z,39.65
2017-06-16T10:06:27.178Z,39.67
2017-06-16T10:07:27.147Z,38.4
2017-06-16T10:08:26.841Z,38.4
2017-06-16T10:09:27.145Z,38.6
2017-06-16T10:10:26.842Z,38.79
2017-06-16T10:11:27.146Z,38.39
2017-06-16T10:12:27.146Z,38.29
2017-06-16T10:13:27.150Z,38.6
2017-06-16T10:14:27.187Z,38.11
2017-06-16T10:15:27.148Z,38.11
2017-06-16T10:16:27.150Z,38.21
2017-06-16T10:17:27.152Z,37.8
2017-06-16T10:18:27.150Z,37.72
2017-06-16T10:19:27.151Z,38.09
2017-06-16T10:20:27.154Z,38.4
2017-06-16T10:21:26.848Z,37.43
2017-06-16T10:22:27.156Z,36.46
2017-06-16T10:23:27.155Z,36.75
2017-06-16T10:24:27.158Z,36.36
2017-06-16T10:25:27.159Z,36.55
2017-06-16T10:26:26.854Z,37.43
2017-06-16T10:27:27.158Z,37.34
2017-06-16T10:28:27.163Z,38.21
2017-06-16T10:29:27.159Z,37.52
2017-06-16T10:30:27.160Z,37.43
2017-06-16T10:31:27.164Z,36.55
2017-06-16T10:32:26.854Z,35.78
2017-06-16T10:33:26.856Z,35.78
2017-06-16T10:34:27.163Z,35.88
2017-06-16T10:35:27.166Z,35.68
2017-06-16T10:36:27.165Z,35.96
2017-06-16T10:37:26.860Z,35.86
2017-06-16T10:38:27.166Z,35.96
2017-06-16T10:39:27.168Z,34.98
2017-06-16T10:40:27.168Z,35.17
2017-06-16T10:41:26.861Z,35.25
2017-06-16T10:42:27.167Z,35.96
2017-06-16T10:43:27.168Z,35.86
2017-06-16T10:44:27.170Z,35.57
2017-06-16T10:45:27.171Z,35.17
2017-06-16T10:46:27.169Z,35.57
2017-06-16T10:47:27.171Z,35.47
2017-06-16T10:48:27.174Z,35.37
2017-06-16T10:49:27.171Z,35.96
2017-06-16T10:50:27.173Z,36.34
2017-06-16T10:51:27.175Z,35.96
2017-06-16T10:52:27.175Z,36.05
2017-06-16T10:53:27.175Z,35.96
2017-06-16T10:54:27.176Z,36.15
2017-06-16T10:55:26.871Z,35.19
2017-06-16T10:56:26.873Z,34.7
2017-06-16T10:57:27.181Z,34.8
2017-06-16T10:58:26.872Z,34.03
2017-06-16T10:59:27.179Z,33.44
2017-06-16T11:00:27.182Z,34.11
2017-06-16T11:01:27.181Z,34.12
2017-06-16T11:02:26.874Z,34.11
2017-06-16T11:03:27.181Z,33.91
2017-06-16T11:04:27.179Z,34.01
2017-06-16T11:05:27.181Z,34.01
2017-06-16T11:06:27.181Z,34.4
2017-06-16T11:07:27.181Z,34.79
2017-06-16T11:08:27.183Z,34.88
2017-06-16T11:09:27.183Z,34.2
2017-06-16T11:10:26.876Z,34.32
2017-06-16T11:11:27.188Z,34.22
2017-06-16T11:12:27.187Z,33.93
2017-06-16T11:13:27.188Z,33.83
2017-06-16T11:14:27.189Z,32.87
2017-06-16T11:15:27.189Z,32.59
2017-06-16T11:16:27.188Z,32
2017-06-16T11:17:27.187Z,30.64
2017-06-16T11:18:27.191Z,30.93
2017-06-16T11:19:27.190Z,30.82
2017-06-16T11:20:26.886Z,31.21
2017-06-16T11:21:27.194Z,31.7
2017-06-16T11:22:27.192Z,32.08
2017-06-16T11:23:27.197Z,32.28
2017-06-16T11:24:26.891Z,32.08
2017-06-16T11:25:27.195Z,32.67
2017-06-16T11:26:27.198Z,31.88
2017-06-16T11:27:27.197Z,32.07
2017-06-16T11:28:27.195Z,32.55
2017-06-16T11:29:27.199Z,32.45
2017-06-16T11:30:27.199Z,33.23
2017-06-16T11:31:27.237Z,32.76
2017-06-16T11:32:27.200Z,33.04
2017-06-16T11:33:27.200Z,32.76
2017-06-16T11:34:27.203Z,32.17
2017-06-16T11:35:27.200Z,31.68
2017-06-16T11:36:27.204Z,31.97
2017-06-16T11:37:27.208Z,33.04
2017-06-16T11:38:26.899Z,33.23
2017-06-16T11:39:27.205Z,32.96
2017-06-16T11:40:27.202Z,32.67
2017-06-16T11:41:27.204Z,31.88
2017-06-16T11:42:27.209Z,31.98
2017-06-16T11:43:27.206Z,32.67
2017-06-16T11:44:27.206Z,32.96
2017-06-16T11:45:27.207Z,32.96
2017-06-16T11:46:27.206Z,33.06
2017-06-16T11:47:27.211Z,33.06
2017-06-16T11:48:27.207Z,32.76
2017-06-16T11:49:26.906Z,32.76
2017-06-16T11:50:27.211Z,33.04
2017-06-16T11:51:27.213Z,33.04
2017-06-16T11:52:27.213Z,33.04
2017-06-16T11:53:27.212Z,33.23
2017-06-16T11:54:27.216Z,33.33
2017-06-16T11:55:26.908Z,33.53
2017-06-16T11:56:27.216Z,33.53
2017-06-16T11:57:27.217Z,33.81
2017-06-16T11:58:27.218Z,34.01
2017-06-16T11:59:27.218Z,34.11
2017-06-16T12:00:27.221Z,33.91
2017-06-16T12:01:27.222Z,34.2
2017-06-16T12:02:26.914Z,33.33
2017-06-16T12:03:27.221Z,33.53
2017-06-16T12:04:27.220Z,33.53
2017-06-16T12:05:26.914Z,34.11
2017-06-16T12:06:27.222Z,34.2
2017-06-16T12:07:26.915Z,34.4
2017-06-16T12:08:26.917Z,34.59
2017-06-16T12:09:27.225Z,34.77
2017-06-16T12:10:27.224Z,34.77
2017-06-16T12:11:27.223Z,34.66
2017-06-16T12:12:26.915Z,35.05
2017-06-16T12:13:27.222Z,34.95
2017-06-16T12:14:26.927Z,35.14
2017-06-16T12:15:27.227Z,34.74
2017-06-16T12:16:27.228Z,34.95
2017-06-16T12:17:26.922Z,35.14
2017-06-16T12:18:27.228Z,35.14
2017-06-16T12:19:27.226Z,35.24
2017-06-16T12:20:27.230Z,34.66
2017-06-16T12:21:26.929Z,34.95
2017-06-16T12:22:27.439Z,35.05
2017-06-16T12:23:27.227Z,35.14
2017-06-16T12:24:26.925Z,35.63
2017-06-16T12:25:27.230Z,35.33
2017-06-16T12:26:27.251Z,34.85
2017-06-16T12:27:27.233Z,34.56
2017-06-16T12:28:27.231Z,34.36
2017-06-16T12:29:27.233Z,35.14
2017-06-16T12:30:26.925Z,35.05
2017-06-16T12:31:27.232Z,35.05
2017-06-16T12:32:27.233Z,34.56
2017-06-16T12:33:27.234Z,34.28
2017-06-16T12:34:27.235Z,34.09
2017-06-16T12:35:27.234Z,33.31
2017-06-16T12:36:27.235Z,33.41
2017-06-16T12:37:27.234Z,33.99
2017-06-16T12:38:27.233Z,34.38
2017-06-16T12:39:27.236Z,34.58
2017-06-16T12:40:27.237Z,34.28
2017-06-16T12:41:27.233Z,34.19
2017-06-16T12:42:26.932Z,33.51
2017-06-16T12:43:27.234Z,33.98
2017-06-16T12:44:27.239Z,33.78
2017-06-16T12:45:27.234Z,33.59
2017-06-16T12:46:27.238Z,34.17
2017-06-16T12:47:26.931Z,33.98
2017-06-16T12:48:27.240Z,34.08
2017-06-16T12:49:27.237Z,33.39
2017-06-16T12:50:27.239Z,33.11
2017-06-16T12:51:27.240Z,33.29
2017-06-16T12:52:27.249Z,33.88
2017-06-16T12:53:27.238Z,34.17
2017-06-16T12:54:27.241Z,34.08
2017-06-16T12:55:27.239Z,34.08